Time;durP1;ratioP1;P1;durP2;ratioP2;P2;SDS_P1;SDS_P2;PMS_P1;PMS_P2;Temp;Humidity;BMP_temperature;BMP_pressure;BME280_temperature;BME280_humidity;BME280_pressure;Samples;Min_cycle;Max_cycle;Signal;HPM_P1;HPM_P2
2021/01/11 00:01:23;;;;;;;23.87;14.17;;;;;;;;;;5020110;28;20692;-71
2021/01/11 00:03:48;;;;;;;17.53;12.97;;;;;;;;;;5019778;28;20221;-71
2021/01/11 00:06:13;;;;;;;19.07;14.40;;;;;;;;;;5019318;28;20497;-71
2021/01/11 00:08:38;;;;;;;19.70;13.43;;;;;;;;;;5019699;28;20223;-72
2021/01/11 00:11:04;;;;;;;21.37;15.23;;;;;;;;;;5019700;28;20319;-71
2021/01/11 00:13:29;;;;;;;20.10;13.63;;;;;;;;;;5020443;28;20220;-71
2021/01/11 00:15:54;;;;;;;20.70;14.20;;;;;;;;;;5020220;28;20312;-71
2021/01/11 00:18:19;;;;;;;21.73;14.63;;;;;;;;;;5020650;28;20560;-70
2021/01/11 00:20:45;;;;;;;21.50;14.90;;;;;;;;;;5020446;28;20297;-70
2021/01/11 00:23:10;;;;;;;17.63;12.20;;;;;;;;;;5019861;28;20235;-71
2021/01/11 00:25:35;;;;;;;20.20;13.67;;;;;;;;;;5020406;28;20306;-71
2021/01/11 00:28:01;;;;;;;20.63;12.07;;;;;;;;;;5020696;28;20232;-69
2021/01/11 00:30:26;;;;;;;19.20;13.50;;;;;;;;;;5020595;28;20552;-70
2021/01/11 00:32:51;;;;;;;20.70;14.20;;;;;;;;;;5020120;28;20738;-71
2021/01/11 00:35:16;;;;;;;18.60;13.37;;;;;;;;;;5020275;28;20279;-70
2021/01/11 00:37:42;;;;;;;17.63;13.23;;;;;;;;;;5020550;28;20223;-71
2021/01/11 00:40:08;;;;;;;21.87;12.87;;;;;;;;;;5019941;28;20555;-70
2021/01/11 00:42:37;;;;;;;19.67;13.10;;;;;;;;;;5020301;28;20220;-70
2021/01/11 00:45:06;;;;;;;21.43;12.80;;;;;;;;;;5019707;28;20211;-70
2021/01/11 00:47:39;;;;;;;20.17;13.40;;;;;;;;;;5019686;28;20447;-70
2021/01/11 00:50:06;;;;;;;16.83;13.10;;;;;;;;;;5020181;28;20980;-70
2021/01/11 00:52:34;;;;;;;17.17;12.40;;;;;;;;;;5020230;28;20455;-70
2021/01/11 00:55:00;;;;;;;16.77;12.87;;;;;;;;;;5019944;28;20488;-70
2021/01/11 00:57:25;;;;;;;17.53;13.00;;;;;;;;;;5019777;28;20511;-70
2021/01/11 00:59:50;;;;;;;19.53;12.70;;;;;;;;;;5018940;28;20216;-70
2021/01/11 01:02:15;;;;;;;17.60;12.73;;;;;;;;;;5019608;28;20586;-70
2021/01/11 01:04:41;;;;;;;19.30;13.10;;;;;;;;;;5019027;28;20225;-70
2021/01/11 01:07:06;;;;;;;17.40;12.50;;;;;;;;;;5019173;28;20577;-69
2021/01/11 01:09:31;;;;;;;18.17;12.90;;;;;;;;;;5019001;28;20299;-70
2021/01/11 01:11:56;;;;;;;21.27;13.80;;;;;;;;;;5019164;28;20250;-70
2021/01/11 01:14:22;;;;;;;15.63;11.33;;;;;;;;;;5018831;28;20228;-70
2021/01/11 01:16:47;;;;;;;15.00;11.73;;;;;;;;;;5019437;28;20224;-70
2021/01/11 01:19:12;;;;;;;20.87;13.33;;;;;;;;;;5018852;28;20224;-70
2021/01/11 01:21:38;;;;;;;14.87;11.40;;;;;;;;;;5019304;28;20702;-72
2021/01/11 01:24:03;;;;;;;14.03;11.27;;;;;;;;;;5019161;28;20211;-69
2021/01/11 01:26:29;;;;;;;16.37;12.03;;;;;;;;;;5018799;28;20223;-70
2021/01/11 01:28:54;;;;;;;15.03;10.70;;;;;;;;;;5019324;28;20299;-70
2021/01/11 01:31:19;;;;;;;15.10;10.73;;;;;;;;;;5018825;28;20232;-70
2021/01/11 01:33:44;;;;;;;16.50;11.87;;;;;;;;;;5019532;28;20607;-70
2021/01/11 01:36:10;;;;;;;16.43;11.00;;;;;;;;;;5018911;28;20222;-69
2021/01/11 01:38:35;;;;;;;18.13;11.80;;;;;;;;;;5018944;28;20309;-69
2021/01/11 01:41:01;;;;;;;14.90;11.07;;;;;;;;;;5019365;28;20220;-69
2021/01/11 01:43:26;;;;;;;14.87;12.70;;;;;;;;;;5019437;28;20228;-70
2021/01/11 01:45:51;;;;;;;16.60;11.47;;;;;;;;;;5019340;28;20669;-70
2021/01/11 01:48:16;;;;;;;14.47;11.40;;;;;;;;;;5018954;28;20220;-70
2021/01/11 01:50:42;;;;;;;16.73;12.30;;;;;;;;;;5050773;28;20222;-70
2021/01/11 01:53:08;;;;;;;13.27;11.07;;;;;;;;;;5018161;28;20272;-70
2021/01/11 01:55:35;;;;;;;17.23;11.80;;;;;;;;;;5018434;28;20237;-71
2021/01/11 01:58:03;;;;;;;16.33;11.63;;;;;;;;;;5018000;28;20297;-72
2021/01/11 02:00:28;;;;;;;15.57;11.57;;;;;;;;;;5018208;28;20913;-69
2021/01/11 02:02:53;;;;;;;13.30;11.10;;;;;;;;;;5018651;28;20491;-70
2021/01/11 02:05:19;;;;;;;15.37;11.47;;;;;;;;;;5017984;28;20225;-71
2021/01/11 02:08:20;;;;;;;15.07;10.33;;;;;;;;;;5018245;28;20234;-71
2021/01/11 02:11:13;;;;;;;14.80;11.33;;;;;;;;;;5031599;28;20695;-67
2021/01/11 02:14:08;;;;;;;16.77;11.63;;;;;;;;;;5036839;28;20781;-70
2021/01/11 02:16:52;;;;;;;16.77;10.90;;;;;;;;;;5036657;28;20498;-70
2021/01/11 02:19:17;;;;;;;13.27;10.50;;;;;;;;;;5038340;28;20459;-70
2021/01/11 02:21:54;;;;;;;17.50;12.00;;;;;;;;;;5037562;28;20467;-70
2021/01/11 02:24:34;;;;;;;13.90;11.60;;;;;;;;;;5038104;28;20219;-70
2021/01/11 02:27:19;;;;;;;14.50;10.80;;;;;;;;;;5037031;28;20459;-70
2021/01/11 02:30:08;;;;;;;15.20;10.83;;;;;;;;;;5068927;28;20455;-70
2021/01/11 02:32:38;;;;;;;13.63;11.20;;;;;;;;;;5036154;28;20801;-71
2021/01/11 02:35:05;;;;;;;17.80;11.67;;;;;;;;;;5037029;28;20463;-70
2021/01/11 02:37:31;;;;;;;15.90;10.63;;;;;;;;;;5038310;28;20804;-71
2021/01/11 02:39:57;;;;;;;13.83;10.40;;;;;;;;;;5036771;28;20464;-70
2021/01/11 02:42:22;;;;;;;12.90;9.87;;;;;;;;;;5037708;28;20468;-68
2021/01/11 02:44:48;;;;;;;15.27;9.37;;;;;;;;;;5035060;28;20245;-60
2021/01/11 02:47:15;;;;;;;14.40;11.10;;;;;;;;;;5061327;28;20322;-60
2021/01/11 02:49:47;;;;;;;14.60;10.43;;;;;;;;;;5051402;28;20484;-60
2021/01/11 02:52:30;;;;;;;14.23;10.50;;;;;;;;;;5051728;28;20490;-59
2021/01/11 02:55:01;;;;;;;16.60;11.50;;;;;;;;;;5035377;28;20471;-60
2021/01/11 02:57:44;;;;;;;13.43;9.97;;;;;;;;;;5044366;28;20526;-58
2021/01/11 03:00:10;;;;;;;14.60;10.03;;;;;;;;;;5045890;28;20464;-60
2021/01/11 03:02:36;;;;;;;12.70;9.90;;;;;;;;;;5043468;28;20553;-59
2021/01/11 03:05:03;;;;;;;13.63;9.30;;;;;;;;;;5047806;28;20509;-59
2021/01/11 03:07:28;;;;;;;14.80;10.63;;;;;;;;;;5040436;28;20463;-59
2021/01/11 03:09:53;;;;;;;13.80;10.30;;;;;;;;;;5043516;28;20466;-59
2021/01/11 03:12:19;;;;;;;13.53;9.77;;;;;;;;;;5041434;28;20260;-59
2021/01/11 03:14:44;;;;;;;15.83;10.47;;;;;;;;;;5057995;28;20564;-59
2021/01/11 03:17:09;;;;;;;14.77;10.67;;;;;;;;;;5045017;28;20225;-59
2021/01/11 03:19:35;;;;;;;11.43;9.33;;;;;;;;;;5050736;28;20222;-59
2021/01/11 03:22:00;;;;;;;12.00;9.70;;;;;;;;;;5044987;28;20244;-59
2021/01/11 03:24:26;;;;;;;14.53;9.67;;;;;;;;;;5047718;28;20718;-59
2021/01/11 03:26:51;;;;;;;11.00;8.37;;;;;;;;;;5045213;28;20232;-60
2021/01/11 03:29:18;;;;;;;15.40;10.27;;;;;;;;;;5052135;28;20224;-59
2021/01/11 03:31:43;;;;;;;11.87;9.20;;;;;;;;;;5052774;28;20231;-59
2021/01/11 03:34:09;;;;;;;14.60;9.73;;;;;;;;;;5046517;28;20454;-60
2021/01/11 03:36:36;;;;;;;12.63;10.33;;;;;;;;;;5058213;28;20230;-59
2021/01/11 03:39:03;;;;;;;14.10;9.77;;;;;;;;;;5044341;28;20534;-60
2021/01/11 03:41:28;;;;;;;14.47;10.60;;;;;;;;;;5053932;28;20794;-59
2021/01/11 03:43:53;;;;;;;13.30;10.57;;;;;;;;;;5036397;28;20473;-60
2021/01/11 03:46:19;;;;;;;13.87;10.77;;;;;;;;;;5044107;28;20369;-59
2021/01/11 03:48:44;;;;;;;18.80;10.80;;;;;;;;;;5052778;28;20225;-59
2021/01/11 03:51:10;;;;;;;16.13;10.43;;;;;;;;;;5050089;28;20300;-60
2021/01/11 03:53:36;;;;;;;16.23;11.40;;;;;;;;;;5045495;28;20222;-60
2021/01/11 03:56:04;;;;;;;16.50;11.20;;;;;;;;;;5048269;28;20460;-60
2021/01/11 03:58:29;;;;;;;18.07;10.87;;;;;;;;;;5052360;28;20509;-60
2021/01/11 04:00:56;;;;;;;16.20;11.57;;;;;;;;;;5047330;28;20468;-60
2021/01/11 04:03:21;;;;;;;15.33;10.73;;;;;;;;;;5045353;28;20303;-60
2021/01/11 04:05:47;;;;;;;16.17;10.60;;;;;;;;;;5047030;28;20929;-59
2021/01/11 04:08:13;;;;;;;14.03;10.37;;;;;;;;;;5051947;28;20226;-59
2021/01/11 04:10:38;;;;;;;12.33;10.33;;;;;;;;;;5047542;28;20480;-59
2021/01/11 04:13:03;;;;;;;14.80;11.70;;;;;;;;;;5045383;28;20219;-59
2021/01/11 04:15:29;;;;;;;14.20;10.70;;;;;;;;;;5050133;28;20262;-59
2021/01/11 04:17:54;;;;;;;14.87;11.53;;;;;;;;;;5044950;28;20248;-60
2021/01/11 04:20:19;;;;;;;16.80;12.20;;;;;;;;;;5056043;28;20230;-59
2021/01/11 04:22:45;;;;;;;14.43;11.40;;;;;;;;;;5045119;28;20282;-59
2021/01/11 04:25:11;;;;;;;17.27;11.00;;;;;;;;;;5051645;28;20228;-57
2021/01/11 04:27:36;;;;;;;14.43;10.53;;;;;;;;;;5052000;28;20289;-59
2021/01/11 04:30:05;;;;;;;18.77;13.43;;;;;;;;;;5044881;28;20951;-60
2021/01/11 04:32:31;;;;;;;13.30;10.03;;;;;;;;;;5045469;28;20216;-60
2021/01/11 04:34:56;;;;;;;14.67;11.63;;;;;;;;;;5054904;28;20481;-59
2021/01/11 04:37:21;;;;;;;14.97;10.80;;;;;;;;;;5056571;28;20371;-60
2021/01/11 04:39:47;;;;;;;15.40;10.57;;;;;;;;;;5048870;28;20244;-59
2021/01/11 04:42:12;;;;;;;13.27;10.33;;;;;;;;;;5048623;28;20302;-60
2021/01/11 04:44:37;;;;;;;15.00;11.57;;;;;;;;;;5054826;28;20215;-59
2021/01/11 04:47:04;;;;;;;16.20;10.70;;;;;;;;;;5043302;28;20225;-59
2021/01/11 04:49:29;;;;;;;13.23;10.17;;;;;;;;;;5054222;28;20209;-58
2021/01/11 04:51:55;;;;;;;14.57;10.63;;;;;;;;;;5037685;28;20469;-60
2021/01/11 04:54:21;;;;;;;15.47;10.90;;;;;;;;;;5050159;28;20462;-59
2021/01/11 04:56:48;;;;;;;15.87;11.53;;;;;;;;;;5048547;28;20221;-59
2021/01/11 04:59:20;;;;;;;13.40;11.07;;;;;;;;;;5053767;28;20533;-59
2021/01/11 05:01:49;;;;;;;15.53;11.00;;;;;;;;;;5054954;28;20453;-59
2021/01/11 05:04:14;;;;;;;17.20;11.93;;;;;;;;;;5049307;28;20453;-59
2021/01/11 05:06:46;;;;;;;13.63;11.20;;;;;;;;;;5048366;28;20473;-59
2021/01/11 05:09:14;;;;;;;15.60;10.37;;;;;;;;;;5052164;28;20231;-59
2021/01/11 05:11:40;;;;;;;16.80;12.10;;;;;;;;;;5054347;28;20459;-59
2021/01/11 05:14:05;;;;;;;17.00;10.73;;;;;;;;;;5044005;28;20501;-60
2021/01/11 05:16:30;;;;;;;15.90;10.73;;;;;;;;;;5052955;28;20223;-60
2021/01/11 05:19:01;;;;;;;14.17;11.30;;;;;;;;;;5050214;28;20302;-60
2021/01/11 05:21:44;;;;;;;13.73;9.70;;;;;;;;;;5046901;28;20231;-60
2021/01/11 05:24:32;;;;;;;14.17;12.23;;;;;;;;;;5047801;28;20536;-59
2021/01/11 05:27:04;;;;;;;15.33;10.33;;;;;;;;;;5038552;28;20483;-60
2021/01/11 05:29:29;;;;;;;13.63;10.57;;;;;;;;;;5046916;28;20459;-59
2021/01/11 05:31:56;;;;;;;12.20;9.80;;;;;;;;;;5052019;28;20471;-59
2021/01/11 05:34:22;;;;;;;14.23;10.73;;;;;;;;;;5053700;28;20217;-59
2021/01/11 05:36:48;;;;;;;15.30;11.80;;;;;;;;;;5049136;28;20933;-59
2021/01/11 05:39:13;;;;;;;14.17;10.27;;;;;;;;;;5045669;28;20463;-60
2021/01/11 05:41:42;;;;;;;13.50;10.47;;;;;;;;;;5053407;28;20245;-60
2021/01/11 05:44:12;;;;;;;11.80;10.33;;;;;;;;;;5053323;28;20214;-60
2021/01/11 05:46:38;;;;;;;14.10;10.60;;;;;;;;;;5040624;28;20486;-59
2021/01/11 05:49:06;;;;;;;20.73;11.90;;;;;;;;;;5053843;28;20476;-59
2021/01/11 05:51:33;;;;;;;14.20;10.97;;;;;;;;;;5051518;28;20737;-58
2021/01/11 05:53:58;;;;;;;11.97;10.77;;;;;;;;;;5046408;28;20467;-58
2021/01/11 05:56:24;;;;;;;13.83;10.53;;;;;;;;;;5049254;28;20458;-58
2021/01/11 05:59:06;;;;;;;12.43;9.60;;;;;;;;;;5052993;28;20267;-58
2021/01/11 06:01:34;;;;;;;14.57;12.60;;;;;;;;;;5053633;28;20352;-59
2021/01/11 06:03:59;;;;;;;14.23;10.63;;;;;;;;;;5047203;28;20464;-58
2021/01/11 06:06:25;;;;;;;14.93;11.30;;;;;;;;;;5048960;28;20505;-59
2021/01/11 06:08:51;;;;;;;17.20;12.17;;;;;;;;;;5052596;28;20681;-59
2021/01/11 06:11:22;;;;;;;16.67;12.63;;;;;;;;;;5051596;28;20461;-58
2021/01/11 06:13:48;;;;;;;15.53;11.17;;;;;;;;;;5042851;28;20966;-58
2021/01/11 06:16:21;;;;;;;13.87;10.23;;;;;;;;;;5051815;28;20486;-58
2021/01/11 06:18:50;;;;;;;16.93;12.30;;;;;;;;;;5046522;28;20859;-58
2021/01/11 06:21:16;;;;;;;13.20;11.10;;;;;;;;;;5044305;28;20578;-59
2021/01/11 06:23:42;;;;;;;12.87;10.63;;;;;;;;;;5051605;28;20931;-58
2021/01/11 06:26:30;;;;;;;13.57;10.80;;;;;;;;;;5052965;28;20467;-59
2021/01/11 06:28:56;;;;;;;12.83;10.00;;;;;;;;;;5033044;28;20364;-60
2021/01/11 06:31:31;;;;;;;13.00;10.30;;;;;;;;;;5044774;28;20468;-59
2021/01/11 06:33:56;;;;;;;15.30;11.87;;;;;;;;;;5049780;28;20491;-60
2021/01/11 06:36:29;;;;;;;16.23;11.43;;;;;;;;;;5052078;28;20614;-60
2021/01/11 06:38:55;;;;;;;15.97;11.30;;;;;;;;;;5049086;28;20228;-60
2021/01/11 06:41:26;;;;;;;16.43;11.43;;;;;;;;;;5045637;28;20891;-60
2021/01/11 06:43:53;;;;;;;14.30;10.70;;;;;;;;;;5048859;28;20228;-60
2021/01/11 06:46:27;;;;;;;13.57;10.73;;;;;;;;;;5037685;28;20467;-60
2021/01/11 06:48:54;;;;;;;15.93;12.10;;;;;;;;;;5049244;28;20466;-60
2021/01/11 06:51:19;;;;;;;14.50;11.43;;;;;;;;;;5049195;28;20970;-60
2021/01/11 06:53:44;;;;;;;17.60;11.80;;;;;;;;;;5045558;28;20468;-60
2021/01/11 06:56:11;;;;;;;14.93;11.80;;;;;;;;;;5047335;28;20227;-60
2021/01/11 06:58:38;;;;;;;13.00;10.57;;;;;;;;;;5052208;28;20569;-60
2021/01/11 07:01:06;;;;;;;14.10;10.63;;;;;;;;;;5048732;28;20839;-60
2021/01/11 07:03:41;;;;;;;12.00;10.53;;;;;;;;;;5045025;28;20436;-60
2021/01/11 07:06:35;;;;;;;13.90;11.40;;;;;;;;;;5047112;28;20456;-60
2021/01/11 07:09:13;;;;;;;15.63;12.03;;;;;;;;;;5034699;28;20545;-60
2021/01/11 07:11:41;;;;;;;16.50;10.27;;;;;;;;;;5045879;28;20477;-59
2021/01/11 07:14:08;;;;;;;13.67;11.37;;;;;;;;;;5049103;28;20448;-59
2021/01/11 07:16:49;;;;;;;14.50;11.63;;;;;;;;;;5051029;28;20983;-59
2021/01/11 07:19:42;;;;;;;11.70;9.40;;;;;;;;;;5050388;28;20447;-59
2021/01/11 07:22:11;;;;;;;15.07;10.70;;;;;;;;;;5036648;28;20466;-59
2021/01/11 07:24:37;;;;;;;11.83;10.60;;;;;;;;;;5045289;28;20523;-60
2021/01/11 07:27:03;;;;;;;13.03;10.10;;;;;;;;;;5049391;28;20486;-60
2021/01/11 07:29:28;;;;;;;15.03;10.90;;;;;;;;;;5052298;28;20509;-59
2021/01/11 07:31:53;;;;;;;13.30;9.87;;;;;;;;;;5046639;28;20232;-60
2021/01/11 07:34:21;;;;;;;11.40;8.87;;;;;;;;;;5044942;28;20354;-59
2021/01/11 07:36:51;;;;;;;14.47;10.67;;;;;;;;;;5049041;28;20230;-59
2021/01/11 07:39:27;;;;;;;16.27;12.07;;;;;;;;;;5051295;28;20455;-60
2021/01/11 07:41:57;;;;;;;14.93;9.90;;;;;;;;;;5049183;28;20538;-61
2021/01/11 07:44:25;;;;;;;12.60;10.77;;;;;;;;;;5044963;28;20585;-59
2021/01/11 07:46:55;;;;;;;14.90;9.77;;;;;;;;;;5049043;28;20527;-59
2021/01/11 07:49:20;;;;;;;11.67;9.97;;;;;;;;;;5049281;28;20470;-59
2021/01/11 07:51:47;;;;;;;11.73;9.80;;;;;;;;;;5045363;28;20487;-59
2021/01/11 07:54:15;;;;;;;13.33;10.23;;;;;;;;;;5051307;28;20256;-59
2021/01/11 07:56:40;;;;;;;14.80;10.20;;;;;;;;;;5045437;28;20481;-59
2021/01/11 07:59:06;;;;;;;14.27;11.33;;;;;;;;;;5042536;28;20528;-59
2021/01/11 08:01:37;;;;;;;14.37;11.73;;;;;;;;;;5051162;28;20242;-59
2021/01/11 08:04:02;;;;;;;12.73;10.87;;;;;;;;;;5051126;28;20511;-59
2021/01/11 08:06:28;;;;;;;14.80;11.63;;;;;;;;;;5044631;28;20508;-59
2021/01/11 08:08:54;;;;;;;11.93;9.70;;;;;;;;;;5046721;28;20557;-59
2021/01/11 08:11:21;;;;;;;12.87;10.73;;;;;;;;;;5035136;28;20316;-58
2021/01/11 08:13:46;;;;;;;15.00;10.70;;;;;;;;;;5046988;28;20459;-59
2021/01/11 08:16:13;;;;;;;10.67;9.20;;;;;;;;;;5053998;28;20813;-59
2021/01/11 08:18:41;;;;;;;12.03;10.17;;;;;;;;;;5055003;28;20219;-59
2021/01/11 08:21:08;;;;;;;13.90;10.77;;;;;;;;;;5048037;28;20473;-59
2021/01/11 08:23:34;;;;;;;15.73;11.40;;;;;;;;;;5048938;28;20456;-60
2021/01/11 08:26:03;;;;;;;17.10;10.30;;;;;;;;;;5054163;28;20965;-59
2021/01/11 08:28:28;;;;;;;14.63;10.50;;;;;;;;;;5055294;28;20478;-59
2021/01/11 08:30:58;;;;;;;14.63;10.97;;;;;;;;;;5047161;28;20466;-59
2021/01/11 08:33:23;;;;;;;16.63;10.70;;;;;;;;;;5047479;28;20227;-59
2021/01/11 08:35:49;;;;;;;11.40;9.63;;;;;;;;;;5055184;28;20463;-59
2021/01/11 08:38:14;;;;;;;15.20;10.70;;;;;;;;;;5054466;28;20220;-59
2021/01/11 08:40:41;;;;;;;14.37;11.00;;;;;;;;;;5048438;28;20319;-59
2021/01/11 08:43:11;;;;;;;17.43;11.27;;;;;;;;;;5046937;28;20776;-60
2021/01/11 08:45:38;;;;;;;12.70;10.80;;;;;;;;;;5032068;28;20460;-59
2021/01/11 08:48:06;;;;;;;11.17;9.80;;;;;;;;;;5043819;28;20474;-60
2021/01/11 08:50:34;;;;;;;10.77;8.73;;;;;;;;;;5049442;28;20459;-59
2021/01/11 08:53:16;;;;;;;13.77;10.13;;;;;;;;;;5044503;28;20795;-61
2021/01/11 08:56:01;;;;;;;11.80;9.80;;;;;;;;;;5044341;28;20966;-60
2021/01/11 08:58:28;;;;;;;12.03;8.83;;;;;;;;;;5038198;28;20458;-59
2021/01/11 09:01:12;;;;;;;14.83;10.53;;;;;;;;;;5048478;28;20494;-59
2021/01/11 09:03:47;;;;;;;14.17;9.77;;;;;;;;;;5050282;28;20509;-59
2021/01/11 09:06:36;;;;;;;15.93;10.27;;;;;;;;;;5054800;28;20970;-59
2021/01/11 09:09:05;;;;;;;11.60;9.27;;;;;;;;;;5054538;28;20463;-59
2021/01/11 09:11:30;;;;;;;12.83;9.57;;;;;;;;;;5052122;28;20493;-58
2021/01/11 09:14:09;;;;;;;16.40;10.30;;;;;;;;;;5053968;28;20484;-59
2021/01/11 09:16:35;;;;;;;15.27;9.50;;;;;;;;;;5044569;28;20726;-60
2021/01/11 09:19:19;;;;;;;11.47;9.20;;;;;;;;;;5050814;28;20466;-60
2021/01/11 09:21:56;;;;;;;11.43;10.20;;;;;;;;;;5047775;28;20491;-59
2021/01/11 09:24:22;;;;;;;9.63;8.43;;;;;;;;;;5038554;28;20448;-59
2021/01/11 09:26:47;;;;;;;14.80;9.40;;;;;;;;;;5052189;28;20506;-60
2021/01/11 09:29:13;;;;;;;11.30;8.10;;;;;;;;;;5055945;28;20233;-59
2021/01/11 09:31:38;;;;;;;11.90;9.27;;;;;;;;;;5043303;28;20327;-60
2021/01/11 09:34:03;;;;;;;10.10;9.10;;;;;;;;;;5054071;28;20225;-59
2021/01/11 09:36:33;;;;;;;9.30;7.93;;;;;;;;;;5050027;28;20231;-59
2021/01/11 09:38:58;;;;;;;8.83;7.80;;;;;;;;;;5046146;28;20232;-62
2021/01/11 09:41:23;;;;;;;11.77;9.27;;;;;;;;;;5050626;28;20468;-60
2021/01/11 09:43:48;;;;;;;13.23;8.03;;;;;;;;;;5053872;28;20221;-59
2021/01/11 09:46:14;;;;;;;10.90;9.00;;;;;;;;;;5040253;28;20237;-62
2021/01/11 09:48:39;;;;;;;13.57;8.73;;;;;;;;;;5042156;28;20301;-60
2021/01/11 09:51:04;;;;;;;10.80;8.57;;;;;;;;;;5052746;28;20224;-60
2021/01/11 09:53:30;;;;;;;8.67;7.27;;;;;;;;;;5045467;28;20304;-59
2021/01/11 09:55:55;;;;;;;14.00;9.10;;;;;;;;;;5051195;28;20256;-59
2021/01/11 09:58:21;;;;;;;11.00;9.23;;;;;;;;;;5051095;28;20480;-59
2021/01/11 10:00:46;;;;;;;10.73;8.73;;;;;;;;;;5043885;28;20236;-58
2021/01/11 10:03:11;;;;;;;10.80;7.90;;;;;;;;;;5053293;28;20310;-59
2021/01/11 10:05:37;;;;;;;11.20;9.33;;;;;;;;;;5051796;28;20244;-60
2021/01/11 10:08:02;;;;;;;12.43;9.20;;;;;;;;;;5045686;28;20236;-60
2021/01/11 10:10:27;;;;;;;11.63;8.70;;;;;;;;;;5046716;28;20300;-59
2021/01/11 10:12:53;;;;;;;9.70;7.30;;;;;;;;;;5044686;28;20220;-59
2021/01/11 10:15:18;;;;;;;11.47;9.27;;;;;;;;;;5047020;28;20243;-59
2021/01/11 10:17:44;;;;;;;10.77;8.00;;;;;;;;;;5052806;28;20235;-60
2021/01/11 10:20:10;;;;;;;14.80;8.60;;;;;;;;;;5051084;28;20229;-60
2021/01/11 10:22:35;;;;;;;11.30;8.73;;;;;;;;;;5040397;28;20299;-60
2021/01/11 10:25:01;;;;;;;9.60;8.20;;;;;;;;;;5038683;28;20499;-62
2021/01/11 10:27:26;;;;;;;7.63;6.73;;;;;;;;;;5041695;28;20240;-59
2021/01/11 10:29:52;;;;;;;8.60;7.30;;;;;;;;;;5049975;28;20277;-60
2021/01/11 10:32:17;;;;;;;9.73;8.80;;;;;;;;;;5051525;28;23106;-59
2021/01/11 10:34:42;;;;;;;12.10;7.77;;;;;;;;;;5048097;28;20248;-60
2021/01/11 10:37:08;;;;;;;15.40;8.17;;;;;;;;;;5045144;28;20222;-59
2021/01/11 10:39:33;;;;;;;8.80;7.33;;;;;;;;;;5049472;28;20228;-60
2021/01/11 10:41:58;;;;;;;10.67;8.80;;;;;;;;;;5052722;28;20253;-59
2021/01/11 10:44:25;;;;;;;8.73;7.80;;;;;;;;;;5047624;28;20221;-59
2021/01/11 10:46:51;;;;;;;9.93;6.97;;;;;;;;;;5042956;28;20267;-59
2021/01/11 10:49:16;;;;;;;9.00;7.30;;;;;;;;;;5051639;28;20467;-59
2021/01/11 10:51:42;;;;;;;8.00;6.53;;;;;;;;;;5045721;28;20898;-59
2021/01/11 10:54:07;;;;;;;9.53;7.03;;;;;;;;;;5044756;28;20209;-60
2021/01/11 10:56:32;;;;;;;8.90;7.37;;;;;;;;;;5068515;28;20245;-59
2021/01/11 10:59:01;;;;;;;10.30;7.77;;;;;;;;;;5049396;28;20580;-60
2021/01/11 11:01:26;;;;;;;8.50;7.40;;;;;;;;;;5044302;28;20295;-59
2021/01/11 11:03:51;;;;;;;10.43;7.97;;;;;;;;;;5050188;28;20471;-59
2021/01/11 11:06:21;;;;;;;9.77;7.20;;;;;;;;;;5033694;28;20616;-60
2021/01/11 11:08:46;;;;;;;7.83;6.77;;;;;;;;;;5042454;28;20218;-58
2021/01/11 11:11:11;;;;;;;10.50;8.60;;;;;;;;;;5040111;28;20456;-60
2021/01/11 11:13:38;;;;;;;11.37;8.10;;;;;;;;;;5037452;28;20231;-61
2021/01/11 11:16:08;;;;;;;12.73;7.50;;;;;;;;;;5039115;28;20623;-61
2021/01/11 11:18:35;;;;;;;13.73;8.63;;;;;;;;;;5037701;28;20456;-61
2021/01/11 11:21:00;;;;;;;10.90;8.30;;;;;;;;;;5051495;28;20491;-60
2021/01/11 11:23:25;;;;;;;9.10;6.90;;;;;;;;;;5037852;28;20936;-59
2021/01/11 11:25:50;;;;;;;8.63;7.30;;;;;;;;;;5050875;28;20282;-73
2021/01/11 11:28:16;;;;;;;11.73;7.07;;;;;;;;;;5043449;28;20236;-64
2021/01/11 11:30:43;;;;;;;11.73;7.07;;;;;;;;;;5053649;28;20377;-63
2021/01/11 11:33:09;;;;;;;9.00;7.90;;;;;;;;;;5057323;28;20642;-64
2021/01/11 11:35:34;;;;;;;9.53;7.93;;;;;;;;;;5044490;28;20470;-64
2021/01/11 11:37:59;;;;;;;9.93;7.73;;;;;;;;;;5057131;28;20665;-63
2021/01/11 11:40:25;;;;;;;10.50;7.60;;;;;;;;;;5039534;28;20221;-62
2021/01/11 11:42:50;;;;;;;8.70;7.03;;;;;;;;;;5046932;28;20222;-64
2021/01/11 11:45:16;;;;;;;9.50;8.27;;;;;;;;;;5051470;28;20290;-64
2021/01/11 11:47:43;;;;;;;9.00;6.70;;;;;;;;;;5037893;28;20633;-64
2021/01/11 11:50:11;;;;;;;10.40;7.57;;;;;;;;;;5049680;28;20469;-64
2021/01/11 11:52:37;;;;;;;12.40;8.70;;;;;;;;;;5046518;28;20467;-65
2021/01/11 11:55:05;;;;;;;10.60;6.73;;;;;;;;;;5050214;28;20980;-63
2021/01/11 11:57:30;;;;;;;8.87;6.30;;;;;;;;;;5050257;28;20231;-63
2021/01/11 11:59:55;;;;;;;8.97;6.90;;;;;;;;;;5036566;28;20464;-63
2021/01/11 12:02:20;;;;;;;9.33;7.60;;;;;;;;;;5037925;28;20262;-64
2021/01/11 12:04:46;;;;;;;10.10;7.50;;;;;;;;;;5051341;28;20327;-65
2021/01/11 12:07:14;;;;;;;9.30;7.87;;;;;;;;;;5051273;28;20231;-65
2021/01/11 12:09:40;;;;;;;9.10;7.13;;;;;;;;;;5037626;28;20244;-64
2021/01/11 12:12:05;;;;;;;8.70;7.13;;;;;;;;;;5050679;28;20463;-64
2021/01/11 12:14:31;;;;;;;8.80;7.90;;;;;;;;;;5043524;28;20540;-64
2021/01/11 12:16:56;;;;;;;8.70;6.10;;;;;;;;;;5045160;28;20282;-64
2021/01/11 12:19:21;;;;;;;9.93;6.87;;;;;;;;;;5084583;28;20240;-64
2021/01/11 12:21:46;;;;;;;9.27;7.00;;;;;;;;;;5048702;28;20691;-63
2021/01/11 12:24:12;;;;;;;10.70;6.73;;;;;;;;;;5051370;28;20230;-66
2021/01/11 12:26:45;;;;;;;8.00;6.20;;;;;;;;;;5048095;28;20262;-64
2021/01/11 12:29:11;;;;;;;9.67;7.50;;;;;;;;;;5044317;28;20465;-63
2021/01/11 12:31:37;;;;;;;8.03;6.60;;;;;;;;;;5044578;28;20540;-62
2021/01/11 12:34:03;;;;;;;11.33;7.10;;;;;;;;;;5050334;28;20504;-63
2021/01/11 12:36:30;;;;;;;8.17;7.27;;;;;;;;;;5048963;28;20455;-64
2021/01/11 12:38:56;;;;;;;7.37;6.03;;;;;;;;;;5044052;28;20512;-63
2021/01/11 12:41:26;;;;;;;9.20;7.50;;;;;;;;;;5045086;28;20458;-64
2021/01/11 12:43:52;;;;;;;12.50;7.83;;;;;;;;;;5050890;28;20529;-65
2021/01/11 12:46:19;;;;;;;9.67;7.00;;;;;;;;;;5039243;28;20460;-63
2021/01/11 12:48:45;;;;;;;11.80;8.30;;;;;;;;;;5046675;28;20485;-64
2021/01/11 12:51:14;;;;;;;9.33;7.70;;;;;;;;;;5043379;28;20495;-64
2021/01/11 12:53:40;;;;;;;9.10;7.10;;;;;;;;;;5048157;28;20479;-64
2021/01/11 12:56:13;;;;;;;12.07;7.73;;;;;;;;;;5034942;28;20471;-66
2021/01/11 12:58:38;;;;;;;7.70;6.80;;;;;;;;;;5050186;28;20449;-64
2021/01/11 13:01:04;;;;;;;9.40;7.60;;;;;;;;;;5029326;28;21022;-65
2021/01/11 13:03:29;;;;;;;11.07;8.30;;;;;;;;;;5053004;28;20544;-63
2021/01/11 13:05:55;;;;;;;10.70;7.63;;;;;;;;;;5052212;28;20964;-64
2021/01/11 13:08:20;;;;;;;7.87;7.03;;;;;;;;;;5050901;28;20232;-63
2021/01/11 13:10:45;;;;;;;8.80;7.53;;;;;;;;;;5042294;28;20225;-63
2021/01/11 13:13:11;;;;;;;10.13;7.90;;;;;;;;;;5051638;28;20229;-66
2021/01/11 13:15:36;;;;;;;9.67;8.07;;;;;;;;;;5045994;28;21216;-65
2021/01/11 13:18:22;;;;;;;13.23;8.60;;;;;;;;;;5046811;28;20276;-66
2021/01/11 13:20:47;;;;;;;9.80;7.97;;;;;;;;;;5041029;28;20232;-65
2021/01/11 13:23:14;;;;;;;12.40;8.37;;;;;;;;;;5039649;28;20807;-65
2021/01/11 13:25:40;;;;;;;11.83;8.70;;;;;;;;;;5052432;28;20668;-65
2021/01/11 13:28:05;;;;;;;13.13;7.90;;;;;;;;;;5049244;28;20473;-64
2021/01/11 13:30:31;;;;;;;10.77;8.80;;;;;;;;;;5044869;28;20618;-66
2021/01/11 13:32:56;;;;;;;13.40;10.37;;;;;;;;;;5049049;28;20214;-65
2021/01/11 13:35:21;;;;;;;9.83;8.43;;;;;;;;;;5052192;28;20223;-64
2021/01/11 13:37:47;;;;;;;13.43;8.30;;;;;;;;;;5048024;28;20244;-65
2021/01/11 13:40:12;;;;;;;13.83;8.27;;;;;;;;;;5045137;28;20213;-70
2021/01/11 13:42:38;;;;;;;14.60;8.90;;;;;;;;;;5047417;28;20235;-70
2021/01/11 13:45:04;;;;;;;11.00;8.53;;;;;;;;;;5051551;28;20281;-69
2021/01/11 13:47:29;;;;;;;11.27;8.57;;;;;;;;;;5036723;28;20252;-70
2021/01/11 13:49:54;;;;;;;9.07;7.30;;;;;;;;;;5051112;28;20545;-66
2021/01/11 13:52:20;;;;;;;9.97;8.17;;;;;;;;;;5046074;28;20224;-66
2021/01/11 13:54:49;;;;;;;8.00;7.20;;;;;;;;;;5051344;28;20221;-65
2021/01/11 13:57:17;;;;;;;11.83;7.90;;;;;;;;;;5049781;28;20220;-65
2021/01/11 13:59:42;;;;;;;10.00;6.87;;;;;;;;;;5041705;28;20918;-65
2021/01/11 14:02:07;;;;;;;13.30;7.53;;;;;;;;;;5042799;28;20537;-64
2021/01/11 14:04:33;;;;;;;10.53;8.07;;;;;;;;;;5051406;28;20229;-65
2021/01/11 14:06:58;;;;;;;9.27;7.30;;;;;;;;;;5049081;28;20229;-65
2021/01/11 14:09:23;;;;;;;9.57;7.90;;;;;;;;;;5040179;28;20502;-65
2021/01/11 14:11:48;;;;;;;11.33;7.90;;;;;;;;;;5047673;28;20236;-66
2021/01/11 14:14:16;;;;;;;7.27;5.40;;;;;;;;;;5044620;28;20236;-65
2021/01/11 14:16:41;;;;;;;9.50;7.50;;;;;;;;;;5045737;28;20242;-65
2021/01/11 14:19:06;;;;;;;9.13;7.30;;;;;;;;;;5050821;28;20978;-66
2021/01/11 14:21:31;;;;;;;9.17;7.00;;;;;;;;;;5046268;28;20249;-66
2021/01/11 14:23:59;;;;;;;9.50;7.23;;;;;;;;;;5040431;28;20653;-66
2021/01/11 14:26:33;;;;;;;9.07;7.10;;;;;;;;;;5036753;28;20213;-66
2021/01/11 14:28:59;;;;;;;9.33;6.70;;;;;;;;;;5038201;28;20524;-66